Time;durP1;ratioP1;P1;durP2;ratioP2;P2;SDS_P1;SDS_P2;PMS_P1;PMS_P2;Temp;Humidity;BMP_temperature;BMP_pressure;BME280_temperature;BME280_humidity;BME280_pressure;Samples;Min_cycle;Max_cycle;Signal;HPM_P1;HPM_P2
2022/10/15 00:01:17;;;;;;;;;;;;;;;13.92;49.06;100058.72;4997764;27;99857;-65
2022/10/15 00:03:43;;;;;;;;;;;;;;;13.92;49.10;100061.44;5016035;27;126578;-69
2022/10/15 00:06:14;;;;;;;;;;;;;;;13.92;49.40;100059.53;4979524;27;98122;-69
2022/10/15 00:08:41;;;;;;;;;;;;;;;13.91;49.26;100051.66;4975218;27;100374;-65
2022/10/15 00:11:09;;;;;;;;;;;;;;;13.90;49.56;100056.28;4976411;27;98652;-69
2022/10/15 00:13:37;;;;;;;;;;;;;;;13.91;49.58;100049.78;4987570;27;97858;-69
2022/10/15 00:16:03;;;;;;;;;;;;;;;13.91;49.21;100048.97;4975584;27;98059;-64
2022/10/15 00:18:30;;;;;;;;;;;;;;;13.90;49.50;100053.59;4991596;27;98213;-69
2022/10/15 00:20:58;;;;;;;;;;;;;;;13.90;49.53;100047.38;4977049;27;98607;-65
2022/10/15 00:23:25;;;;;;;;;;;;;;;13.90;49.60;100041.94;4983008;27;112439;-69
2022/10/15 00:26:10;;;;;;;;;;;;;;;13.90;49.63;100045.44;4983977;27;97843;-69
2022/10/15 00:28:36;;;;;;;;;;;;;;;13.91;49.46;100048.97;4994416;27;98130;-69
2022/10/15 00:31:03;;;;;;;;;;;;;;;13.90;49.53;100045.44;4970888;27;100839;-66
2022/10/15 00:33:29;;;;;;;;;;;;;;;13.91;49.63;100041.66;4989088;27;97973;-65
2022/10/15 00:36:03;;;;;;;;;;;;;;;13.91;49.55;100040.84;4977215;27;97924;-65
2022/10/15 00:38:29;;;;;;;;;;;;;;;13.91;49.52;100033.53;4991982;27;109242;-65
2022/10/15 00:40:56;;;;;;;;;;;;;;;13.92;49.35;100037.84;4975956;27;98461;-69
2022/10/15 00:43:45;;;;;;;;;;;;;;;13.92;49.42;100027.00;4977536;27;97924;-68
2022/10/15 00:46:19;;;;;;;;;;;;;;;13.92;49.54;100027.00;5015599;27;97801;-65
2022/10/15 00:48:47;;;;;;;;;;;;;;;13.93;49.59;100019.69;5015156;27;98039;-65
2022/10/15 00:51:13;;;;;;;;;;;;;;;13.93;49.51;100019.69;4972464;27;111378;-65
2022/10/15 00:53:39;;;;;;;;;;;;;;;13.93;49.22;100016.97;4973563;27;97786;-65
2022/10/15 00:56:06;;;;;;;;;;;;;;;13.94;49.26;100013.16;4976756;27;98117;-65
2022/10/15 00:58:32;;;;;;;;;;;;;;;13.94;49.68;100019.38;4977747;27;98271;-64
2022/10/15 01:00:58;;;;;;;;;;;;;;;13.95;49.37;100014.75;4995127;27;128526;-65
2022/10/15 01:03:24;;;;;;;;;;;;;;;13.93;49.55;100019.69;4973660;27;98356;-65
2022/10/15 01:05:50;;;;;;;;;;;;;;;13.94;49.48;100010.44;4995664;27;98266;-66
2022/10/15 01:08:17;;;;;;;;;;;;;;;13.93;49.81;100009.63;4985669;27;98132;-64
2022/10/15 01:11:10;;;;;;;;;;;;;;;13.93;49.74;100008.84;4977519;27;106954;-69
2022/10/15 01:13:57;;;;;;;;;;;;;;;13.94;49.33;100005.03;4955313;27;98094;-67
2022/10/15 01:16:37;;;;;;;;;;;;;;;13.93;49.79;99998.81;5016471;27;97855;-69
2022/10/15 01:19:34;;;;;;;;;;;;;;;13.95;49.80;99999.31;4995584;27;98208;-64
2022/10/15 01:22:05;;;;;;;;;;;;;;;13.93;49.79;99996.09;5023172;27;98547;-69
2022/10/15 01:24:59;;;;;;;;;;;;;;;13.93;49.36;99987.97;4976135;27;98149;-69
2022/10/15 01:27:33;;;;;;;;;;;;;;;13.93;49.72;99992.59;4994646;27;97911;-69
2022/10/15 01:30:21;;;;;;;;;;;;;;;13.91;49.33;99984.78;5000843;27;99962;-69
2022/10/15 01:32:59;;;;;;;;;;;;;;;13.90;49.58;99993.19;5015693;27;98305;-69
2022/10/15 01:35:40;;;;;;;;;;;;;;;13.88;49.67;99993.50;4972742;27;98158;-65
2022/10/15 01:38:40;;;;;;;;;;;;;;;13.86;49.64;99984.84;4990883;27;97892;-68
2022/10/15 01:41:09;;;;;;;;;;;;;;;13.84;49.64;99986.28;4956952;27;100614;-68
2022/10/15 01:43:59;;;;;;;;;;;;;;;13.82;49.88;99983.84;4980619;27;99111;-65
2022/10/15 01:46:36;;;;;;;;;;;;;;;13.81;50.01;99982.25;4991457;27;97771;-69
2022/10/15 01:49:04;;;;;;;;;;;;;;;13.79;49.59;99984.44;5004870;27;97827;-64
2022/10/15 01:51:30;;;;;;;;;;;;;;;13.78;49.66;99979.31;4976110;27;98197;-64
2022/10/15 01:53:57;;;;;;;;;;;;;;;13.77;49.83;99983.16;4972065;27;97987;-64
2022/10/15 01:56:23;;;;;;;;;;;;;;;13.74;49.87;99984.53;4990960;27;97865;-64
2022/10/15 01:58:50;;;;;;;;;;;;;;;13.72;49.81;99979.44;4974559;27;97916;-69
2022/10/15 02:01:18;;;;;;;;;;;;;;;13.71;49.65;99982.44;4989959;27;103466;-68
2022/10/15 02:03:46;;;;;;;;;;;;;;;13.70;49.64;99970.78;4981774;27;98044;-68
2022/10/15 02:06:17;;;;;;;;;;;;;;;13.69;49.99;99976.53;4980876;27;98908;-65
2022/10/15 02:08:59;;;;;;;;;;;;;;;13.68;49.81;99966.78;4976862;27;97924;-64
2022/10/15 02:11:26;;;;;;;;;;;;;;;13.67;50.06;99967.88;4985464;27;105081;-69
2022/10/15 02:14:08;;;;;;;;;;;;;;;13.67;49.67;99970.59;4972644;27;97799;-65
2022/10/15 02:16:36;;;;;;;;;;;;;;;13.64;49.91;99961.19;4991686;27;98121;-65
2022/10/15 02:19:07;;;;;;;;;;;;;;;13.63;49.92;99962.25;4992448;27;97834;-69
2022/10/15 02:21:58;;;;;;;;;;;;;;;13.62;49.87;99954.44;4986499;27;100147;-69
2022/10/15 02:24:26;;;;;;;;;;;;;;;13.60;50.07;99953.94;4998761;27;100206;-65
2022/10/15 02:26:54;;;;;;;;;;;;;;;13.59;49.76;99953.13;4983426;27;97851;-69
2022/10/15 02:29:23;;;;;;;;;;;;;;;13.58;50.05;99951.53;4977333;27;98099;-69
2022/10/15 02:31:49;;;;;;;;;;;;;;;13.58;50.30;99956.94;4975186;27;98330;-65
2022/10/15 02:34:18;;;;;;;;;;;;;;;13.57;50.09;99949.94;4984159;27;111482;-65
2022/10/15 02:36:44;;;;;;;;;;;;;;;13.57;50.13;99951.84;4989622;27;98043;-65
2022/10/15 02:39:13;;;;;;;;;;;;;;;13.56;49.94;99942.09;4977206;27;97939;-68
2022/10/15 02:41:39;;;;;;;;;;;;;;;13.55;50.05;99940.50;4983916;27;98573;-68
2022/10/15 02:44:05;;;;;;;;;;;;;;;13.54;49.91;99936.97;4973015;27;99881;-64
2022/10/15 02:46:32;;;;;;;;;;;;;;;13.54;49.91;99933.47;4985453;27;98155;-65
2022/10/15 02:48:58;;;;;;;;;;;;;;;13.53;50.02;99929.16;4982676;27;98244;-69
2022/10/15 02:51:24;;;;;;;;;;;;;;;13.50;49.99;99931.34;4979875;27;98168;-65
2022/10/15 02:53:50;;;;;;;;;;;;;;;13.51;49.83;99924.84;4970228;27;99980;-64
2022/10/15 02:56:16;;;;;;;;;;;;;;;13.49;50.16;99932.47;4987479;27;98079;-65
2022/10/15 02:58:42;;;;;;;;;;;;;;;13.49;49.96;99929.75;4993330;27;97978;-68
2022/10/15 03:01:09;;;;;;;;;;;;;;;13.49;50.18;99932.47;4980034;27;98054;-69
2022/10/15 03:03:36;;;;;;;;;;;;;;;13.51;49.86;99932.16;4991024;27;98355;-69
2022/10/15 03:06:02;;;;;;;;;;;;;;;13.50;49.97;99942.19;4973259;27;98033;-64
2022/10/15 03:08:29;;;;;;;;;;;;;;;13.50;49.94;99930.56;4970739;27;107793;-65
2022/10/15 03:10:56;;;;;;;;;;;;;;;13.50;50.12;99931.34;4977166;27;103210;-69
2022/10/15 03:13:23;;;;;;;;;;;;;;;13.53;50.18;99945.41;4986291;27;98237;-69
2022/10/15 03:15:49;;;;;;;;;;;;;;;13.53;50.09;99940.81;4973692;27;97875;-65
2022/10/15 03:18:16;;;;;;;;;;;;;;;13.54;49.80;99936.19;4974648;27;97995;-69
2022/10/15 03:20:42;;;;;;;;;;;;;;;13.53;49.85;99935.38;4978263;27;98033;-69
2022/10/15 03:23:11;;;;;;;;;;;;;;;13.54;49.95;99933.47;4997855;27;97952;-68
2022/10/15 03:25:37;;;;;;;;;;;;;;;13.55;49.99;99935.06;4976653;27;97885;-69
2022/10/15 03:28:04;;;;;;;;;;;;;;;13.56;50.10;99929.38;4972526;27;98160;-65
2022/10/15 03:30:30;;;;;;;;;;;;;;;13.57;49.95;99928.25;4980182;27;97951;-65
2022/10/15 03:32:56;;;;;;;;;;;;;;;13.55;49.89;99925.03;4980330;27;128113;-69
2022/10/15 03:35:22;;;;;;;;;;;;;;;13.57;50.22;99930.97;4970899;27;98297;-69
2022/10/15 03:37:48;;;;;;;;;;;;;;;13.57;50.05;99927.47;4973300;27;117156;-65
2022/10/15 03:40:15;;;;;;;;;;;;;;;13.57;50.20;99928.25;4974131;27;100150;-69
2022/10/15 03:42:41;;;;;;;;;;;;;;;13.58;50.10;99926.34;4997125;27;100414;-64
2022/10/15 03:45:08;;;;;;;;;;;;;;;13.59;50.05;99928.75;4980056;27;97864;-64
2022/10/15 03:47:34;;;;;;;;;;;;;;;13.58;49.87;99920.94;4975093;27;98106;-66
2022/10/15 03:50:01;;;;;;;;;;;;;;;13.59;50.26;99922.53;4969068;27;98073;-69
2022/10/15 03:52:28;;;;;;;;;;;;;;;13.59;50.36;99915.22;4998144;27;98092;-69
2022/10/15 03:54:55;;;;;;;;;;;;;;;13.58;50.15;99918.22;4967125;27;98209;-65
2022/10/15 03:57:22;;;;;;;;;;;;;;;13.59;50.20;99926.03;4965902;27;98399;-69
2022/10/15 03:59:48;;;;;;;;;;;;;;;13.59;50.08;99917.13;4961929;27;101388;-69
2022/10/15 04:02:14;;;;;;;;;;;;;;;13.60;50.14;99919.56;4973006;27;98269;-68
2022/10/15 04:04:40;;;;;;;;;;;;;;;13.60;50.29;99907.91;4980770;27;97988;-69
2022/10/15 04:07:06;;;;;;;;;;;;;;;13.60;50.32;99903.31;4980346;27;97865;-69
2022/10/15 04:09:34;;;;;;;;;;;;;;;13.60;50.45;99916.03;4975091;27;99496;-69
2022/10/15 04:12:01;;;;;;;;;;;;;;;13.60;50.11;99921.47;4971033;27;97776;-64
2022/10/15 04:14:29;;;;;;;;;;;;;;;13.61;50.54;99914.94;4970796;27;97823;-69
2022/10/15 04:16:57;;;;;;;;;;;;;;;13.61;50.01;99923.84;4974906;27;97936;-64
2022/10/15 04:19:24;;;;;;;;;;;;;;;13.61;50.06;99910.31;4971428;27;97768;-65
2022/10/15 04:21:50;;;;;;;;;;;;;;;13.63;50.15;99915.41;4973011;27;98116;-69
2022/10/15 04:24:16;;;;;;;;;;;;;;;13.62;50.33;99905.69;4973017;27;98121;-64
2022/10/15 04:26:42;;;;;;;;;;;;;;;13.62;50.09;99906.50;4984215;27;98002;-65
2022/10/15 04:29:08;;;;;;;;;;;;;;;13.64;50.14;99898.88;4976227;27;124269;-64
2022/10/15 04:31:33;;;;;;;;;;;;;;;13.67;50.21;99906.38;4985926;27;113676;-68
2022/10/15 04:34:01;;;;;;;;;;;;;;;13.67;50.50;99909.09;4968215;27;98170;-69
2022/10/15 04:36:28;;;;;;;;;;;;;;;13.69;50.38;99909.63;4971897;27;98329;-69
2022/10/15 04:38:54;;;;;;;;;;;;;;;13.70;50.38;99902.28;4972320;27;98084;-69
2022/10/15 04:41:20;;;;;;;;;;;;;;;13.71;50.23;99910.09;4972086;27;97918;-65
2022/10/15 04:43:46;;;;;;;;;;;;;;;13.73;50.08;99920.66;4977219;27;100025;-69
2022/10/15 04:46:21;;;;;;;;;;;;;;;13.74;50.40;99917.63;4984306;27;97816;-65
2022/10/15 04:48:48;;;;;;;;;;;;;;;13.75;50.12;99904.88;4990047;27;98304;-69
2022/10/15 04:51:17;;;;;;;;;;;;;;;13.78;50.13;99914.31;4996652;27;98583;-69
2022/10/15 04:53:44;;;;;;;;;;;;;;;13.78;50.05;99906.19;4974392;27;97849;-69
2022/10/15 04:56:14;;;;;;;;;;;;;;;13.79;50.38;99913.22;4976755;27;98335;-69
2022/10/15 04:58:40;;;;;;;;;;;;;;;13.79;50.36;99905.88;4996223;27;98073;-69
2022/10/15 05:01:11;;;;;;;;;;;;;;;13.80;50.26;99910.22;4981259;27;98249;-69
2022/10/15 05:03:39;;;;;;;;;;;;;;;13.81;49.96;99902.88;4982605;27;99189;-69
2022/10/15 05:06:15;;;;;;;;;;;;;;;13.82;50.32;99916.13;4980994;27;98243;-69
2022/10/15 05:08:44;;;;;;;;;;;;;;;13.82;50.24;99909.91;4978537;27;98151;-69
2022/10/15 05:11:12;;;;;;;;;;;;;;;13.83;50.25;99912.31;4983569;27;97986;-69
2022/10/15 05:13:38;;;;;;;;;;;;;;;13.83;50.41;99915.00;4978324;27;97979;-69
2022/10/15 05:16:15;;;;;;;;;;;;;;;13.84;49.96;99918.53;4979070;27;98042;-69
2022/10/15 05:18:43;;;;;;;;;;;;;;;13.84;50.02;99918.53;4972487;27;101955;-69
2022/10/15 05:21:11;;;;;;;;;;;;;;;13.84;50.25;99915.84;4984654;27;98057;-69
2022/10/15 05:23:37;;;;;;;;;;;;;;;13.83;50.39;99912.31;4999881;27;99991;-69
2022/10/15 05:26:08;;;;;;;;;;;;;;;13.83;50.17;99909.59;4981268;27;97854;-69
2022/10/15 05:28:34;;;;;;;;;;;;;;;13.83;50.04;99912.31;4978034;27;97858;-70
2022/10/15 05:31:09;;;;;;;;;;;;;;;13.84;50.19;99915.84;5008678;27;101432;-69
2022/10/15 05:33:36;;;;;;;;;;;;;;;13.83;50.00;99909.59;4993464;27;99018;-69
2022/10/15 05:36:13;;;;;;;;;;;;;;;13.84;50.47;99913.13;4987763;27;98426;-69
2022/10/15 05:38:40;;;;;;;;;;;;;;;13.83;50.03;99916.91;4993431;27;98430;-69
2022/10/15 05:41:07;;;;;;;;;;;;;;;13.82;50.20;99918.03;4983013;27;97926;-69
2022/10/15 05:43:32;;;;;;;;;;;;;;;13.82;50.28;99913.41;4983831;27;97846;-69
2022/10/15 05:46:00;;;;;;;;;;;;;;;13.82;49.98;99918.81;4985006;27;98087;-69
2022/10/15 05:48:26;;;;;;;;;;;;;;;13.82;50.03;99923.44;4996255;27;98042;-69
2022/10/15 05:50:53;;;;;;;;;;;;;;;13.82;50.46;99929.66;4970052;27;98109;-69
2022/10/15 05:53:20;;;;;;;;;;;;;;;13.84;50.21;99941.00;4973071;27;100475;-69
2022/10/15 05:55:48;;;;;;;;;;;;;;;13.84;50.06;99932.09;4971320;27;98476;-69
2022/10/15 05:58:14;;;;;;;;;;;;;;;13.85;50.14;99939.09;4974047;27;98092;-69
2022/10/15 06:00:41;;;;;;;;;;;;;;;13.86;50.07;99933.38;4974232;27;97861;-69
2022/10/15 06:03:13;;;;;;;;;;;;;;;13.88;50.30;99927.66;4969893;27;98052;-69
2022/10/15 06:05:39;;;;;;;;;;;;;;;13.90;50.11;99931.66;4990822;27;98244;-64
2022/10/15 06:08:05;;;;;;;;;;;;;;;13.93;50.23;99924.84;4994358;27;98312;-65
2022/10/15 06:10:34;;;;;;;;;;;;;;;13.94;50.34;99929.16;4974069;27;98100;-65
2022/10/15 06:13:00;;;;;;;;;;;;;;;13.96;49.99;99926.97;4974823;27;98037;-65
2022/10/15 06:15:26;;;;;;;;;;;;;;;13.98;50.37;99925.53;4965996;27;117171;-64
2022/10/15 06:17:53;;;;;;;;;;;;;;;14.02;49.90;99923.03;4971172;27;98224;-64
2022/10/15 06:20:19;;;;;;;;;;;;;;;14.07;50.23;99925.66;4974982;27;97936;-64
2022/10/15 06:22:45;;;;;;;;;;;;;;;14.12;50.03;99925.53;4967767;27;110681;-65
2022/10/15 06:25:12;;;;;;;;;;;;;;;14.17;50.14;99930.03;4990653;27;113813;-69
2022/10/15 06:27:40;;;;;;;;;;;;;;;14.22;50.09;99930.72;4992644;27;98490;-69
2022/10/15 06:30:07;;;;;;;;;;;;;;;14.24;50.01;99928.53;4977165;27;99131;-69
2022/10/15 06:32:34;;;;;;;;;;;;;;;14.26;49.76;99930.91;4970669;27;99957;-69
2022/10/15 06:35:00;;;;;;;;;;;;;;;14.28;49.82;99946.88;4995779;27;98105;-69
2022/10/15 06:37:30;;;;;;;;;;;;;;;14.29;50.07;99953.91;4966798;27;98224;-69
2022/10/15 06:39:57;;;;;;;;;;;;;;;14.29;49.82;99954.72;4975409;27;98225;-65
2022/10/15 06:42:23;;;;;;;;;;;;;;;14.31;49.82;99952.50;4977364;27;98200;-69
2022/10/15 06:44:51;;;;;;;;;;;;;;;14.33;50.05;99953.00;4973725;27;97908;-69
2022/10/15 06:47:18;;;;;;;;;;;;;;;14.34;50.16;99953.78;4965101;27;98418;-69
2022/10/15 06:49:46;;;;;;;;;;;;;;;14.36;50.17;99960.53;4975329;27;98373;-69
2022/10/15 06:52:12;;;;;;;;;;;;;;;14.39;49.75;99959.91;4966820;27;98311;-69
2022/10/15 06:54:38;;;;;;;;;;;;;;;14.43;50.03;99954.69;4972805;27;98005;-69
2022/10/15 06:57:04;;;;;;;;;;;;;;;14.48;50.00;99957.28;4987577;27;121372;-65
2022/10/15 06:59:31;;;;;;;;;;;;;;;14.56;49.47;99953.88;4973435;27;101913;-65
2022/10/15 07:01:57;;;;;;;;;;;;;;;14.68;49.34;99956.06;4989939;27;98393;-65
2022/10/15 07:04:23;;;;;;;;;;;;;;;14.84;49.18;99959.22;4989131;27;98245;-69
2022/10/15 07:06:49;;;;;;;;;;;;;;;14.97;49.46;99961.88;4969006;27;98557;-65
2022/10/15 07:09:15;;;;;;;;;;;;;;;15.13;49.35;99956.03;4948720;27;98200;-69
2022/10/15 07:11:42;;;;;;;;;;;;;;;15.26;49.00;99962.53;4951250;27;98128;-69
2022/10/15 07:14:08;;;;;;;;;;;;;;;15.36;48.91;99968.47;4948362;27;98127;-65
2022/10/15 07:16:36;;;;;;;;;;;;;;;15.53;48.86;99965.09;4950017;27;98264;-69
2022/10/15 07:19:02;;;;;;;;;;;;;;;15.71;48.92;99976.84;4951593;27;98270;-65
2022/10/15 07:21:28;;;;;;;;;;;;;;;15.81;48.66;99971.16;4972236;27;106259;-65
2022/10/15 07:23:54;;;;;;;;;;;;;;;15.91;48.52;99978.19;4961631;27;98496;-65
2022/10/15 07:26:20;;;;;;;;;;;;;;;16.02;48.58;99984.97;4958616;27;98322;-65
2022/10/15 07:28:47;;;;;;;;;;;;;;;16.07;48.49;99979.41;4952286;27;98019;-65
2022/10/15 07:31:14;;;;;;;;;;;;;;;15.95;48.87;99985.44;4952366;27;98237;-65
2022/10/15 07:33:44;;;;;;;;;;;;;;;15.88;49.05;99978.84;4953412;27;99034;-65
2022/10/15 07:36:13;;;;;;;;;;;;;;;15.84;49.05;99975.97;4967608;27;99290;-65
2022/10/15 07:38:39;;;;;;;;;;;;;;;15.88;48.83;99971.50;4953957;27;99090;-65
2022/10/15 07:41:06;;;;;;;;;;;;;;;15.95;48.94;99977.28;4963439;27;98059;-65
2022/10/15 07:43:33;;;;;;;;;;;;;;;16.01;48.65;99967.06;4956844;27;97995;-65
2022/10/15 07:46:00;;;;;;;;;;;;;;;16.09;48.61;99954.59;4973039;27;98432;-65
2022/10/15 07:48:26;;;;;;;;;;;;;;;16.18;48.71;99952.69;4958121;27;98265;-65
2022/10/15 07:50:59;;;;;;;;;;;;;;;16.31;48.61;99953.66;4947014;27;99227;-65
2022/10/15 07:53:25;;;;;;;;;;;;;;;16.40;48.49;99960.75;4947195;27;98218;-65
2022/10/15 07:55:52;;;;;;;;;;;;;;;16.53;48.45;99960.91;4971325;27;106604;-65
2022/10/15 07:58:18;;;;;;;;;;;;;;;16.73;48.24;99957.56;4949735;27;100461;-65
2022/10/15 08:00:45;;;;;;;;;;;;;;;16.86;48.14;99962.06;4968355;27;98558;-66
2022/10/15 08:03:11;;;;;;;;;;;;;;;17.05;48.04;99969.88;4952905;27;97829;-70
2022/10/15 08:05:38;;;;;;;;;;;;;;;17.17;47.86;99974.66;4984611;27;98077;-69
2022/10/15 08:08:04;;;;;;;;;;;;;;;17.14;47.91;99975.34;4969010;27;100636;-69
2022/10/15 08:10:31;;;;;;;;;;;;;;;17.08;48.29;99977.41;4967527;27;97900;-69
2022/10/15 08:12:59;;;;;;;;;;;;;;;17.02;48.24;99981.44;4958216;27;98956;-69
2022/10/15 08:15:26;;;;;;;;;;;;;;;16.96;48.47;99984.63;4966628;27;98081;-69
2022/10/15 08:17:52;;;;;;;;;;;;;;;16.84;48.58;99991.53;4969688;27;97859;-69
2022/10/15 08:20:19;;;;;;;;;;;;;;;16.72;48.73;99994.06;4969079;27;98106;-69
2022/10/15 08:22:44;;;;;;;;;;;;;;;16.62;49.02;99997.91;4988802;27;97976;-69
2022/10/15 08:25:11;;;;;;;;;;;;;;;16.55;49.09;100004.94;4967270;27;98145;-69
2022/10/15 08:27:37;;;;;;;;;;;;;;;16.45;49.08;100001.38;4972894;27;98111;-69
2022/10/15 08:30:04;;;;;;;;;;;;;;;16.40;49.18;100006.97;4976319;27;98134;-69
2022/10/15 08:32:30;;;;;;;;;;;;;;;16.37;49.17;100010.31;4969226;27;99036;-65
2022/10/15 08:34:58;;;;;;;;;;;;;;;16.36;49.02;100008.72;4962794;27;103980;-69
2022/10/15 08:37:24;;;;;;;;;;;;;;;16.38;49.09;100017.34;4984759;27;98701;-70
2022/10/15 08:39:50;;;;;;;;;;;;;;;16.41;49.07;99999.63;4975192;27;98824;-69
2022/10/15 08:42:21;;;;;;;;;;;;;;;16.42;49.20;99993.06;4972001;27;117008;-69
2022/10/15 08:44:55;;;;;;;;;;;;;;;16.47;49.12;99994.84;4987457;27;98086;-69
2022/10/15 08:47:24;;;;;;;;;;;;;;;16.58;48.77;99990.66;4979775;27;99680;-65
2022/10/15 08:49:52;;;;;;;;;;;;;;;16.80;48.64;100003.38;5005856;27;98459;-65
2022/10/15 08:52:41;;;;;;;;;;;;;;;17.05;48.33;99999.03;4988377;27;98049;-65
2022/10/15 08:55:13;;;;;;;;;;;;;;;17.23;47.99;100000.63;4969194;27;99032;-65
2022/10/15 08:57:46;;;;;;;;;;;;;;;17.33;48.12;99997.56;4986504;27;98079;-65
2022/10/15 09:00:20;;;;;;;;;;;;;;;17.50;47.89;100002.19;4980444;27;98696;-65
2022/10/15 09:02:48;;;;;;;;;;;;;;;17.41;48.19;100010.38;4981488;27;97970;-65
2022/10/15 09:05:24;;;;;;;;;;;;;;;17.30;48.20;100006.38;4990236;27;98047;-65
2022/10/15 09:08:28;;;;;;;;;;;;;;;17.32;48.22;100001.41;4987874;27;98401;-65
2022/10/15 09:11:00;;;;;;;;;;;;;;;17.21;48.27;100002.06;4991079;27;98284;-65
2022/10/15 09:13:32;;;;;;;;;;;;;;;17.30;48.29;100008.31;5002291;27;98316;-65
2022/10/15 09:16:20;;;;;;;;;;;;;;;17.41;48.28;100009.56;4986542;27;98952;-65
2022/10/15 09:18:48;;;;;;;;;;;;;;;17.29;48.53;100012.13;4974156;27;100679;-65
2022/10/15 09:21:14;;;;;;;;;;;;;;;17.23;48.57;100014.25;4968999;27;99168;-65
2022/10/15 09:23:42;;;;;;;;;;;;;;;17.19;48.45;100007.84;4971290;27;98374;-65
2022/10/15 09:26:11;;;;;;;;;;;;;;;17.19;48.72;100013.28;4977777;27;98045;-65
2022/10/15 09:29:08;;;;;;;;;;;;;;;17.12;48.71;100021.94;4990932;27;98183;-65
2022/10/15 09:31:55;;;;;;;;;;;;;;;17.25;48.59;100022.91;4991222;27;98265;-65
2022/10/15 09:34:48;;;;;;;;;;;;;;;17.58;48.18;100025.06;4959553;27;98217;-65
2022/10/15 09:37:46;;;;;;;;;;;;;;;17.71;48.06;100026.78;5006609;27;100195;-65
2022/10/15 09:40:12;;;;;;;;;;;;;;;18.11;47.56;100027.31;4990262;27;98386;-65
2022/10/15 09:42:38;;;;;;;;;;;;;;;18.60;47.06;100021.44;4991453;27;97965;-66
2022/10/15 09:45:09;;;;;;;;;;;;;;;18.77;47.06;100024.06;4969546;27;98091;-65
2022/10/15 09:47:35;;;;;;;;;;;;;;;18.95;46.77;100026.66;4979393;27;112101;-66
2022/10/15 09:50:05;;;;;;;;;;;;;;;19.00;46.95;100027.25;4974328;27;98135;-69
2022/10/15 09:52:53;;;;;;;;;;;;;;;18.94;47.33;100025.84;4964690;27;98416;-69
2022/10/15 09:55:29;;;;;;;;;;;;;;;19.08;47.29;100022.84;4995587;27;98208;-69
2022/10/15 09:57:59;;;;;;;;;;;;;;;19.43;46.94;100020.59;4990034;27;98444;-65
2022/10/15 10:00:25;;;;;;;;;;;;;;;19.63;46.68;100032.63;4972708;27;98172;-65
2022/10/15 10:03:05;;;;;;;;;;;;;;;19.58;46.85;100030.88;4972031;27;109333;-65
2022/10/15 10:05:32;;;;;;;;;;;;;;;19.46;47.14;100036.31;4976053;27;98216;-65
2022/10/15 10:08:09;;;;;;;;;;;;;;;19.29;47.55;100037.25;4954988;27;99484;-66
2022/10/15 10:10:36;;;;;;;;;;;;;;;19.15;47.89;100035.97;4946354;27;99401;-65
2022/10/15 10:13:03;;;;;;;;;;;;;;;19.21;47.60;100032.69;4956555;27;99355;-66
2022/10/15 10:15:31;;;;;;;;;;;;;;;19.15;47.83;100034.03;4949125;27;98523;-66
2022/10/15 10:17:57;;;;;;;;;;;;;;;19.06;47.79;100045.03;4964622;27;98206;-65
2022/10/15 10:20:33;;;;;;;;;;;;;;;18.96;48.15;100042.72;4940732;27;100431;-65
2022/10/15 10:23:15;;;;;;;;;;;;;;;18.84;48.22;100045.38;4980086;27;97980;-66
2022/10/15 10:25:41;;;;;;;;;;;;;;;18.70;48.33;100044.78;4951102;27;98636;-65
2022/10/15 10:28:10;;;;;;;;;;;;;;;18.61;48.73;100048.38;4945559;27;100246;-65
2022/10/15 10:30:38;;;;;;;;;;;;;;;18.63;48.35;100045.34;4974325;27;98431;-65
2022/10/15 10:33:04;;;;;;;;;;;;;;;18.61;48.48;100042.91;4961710;27;99852;-65
2022/10/15 10:35:43;;;;;;;;;;;;;;;18.47;48.92;100042.38;4952003;27;98361;-68
2022/10/15 10:38:21;;;;;;;;;;;;;;;18.39;48.90;100037.75;4950668;27;97961;-66
2022/10/15 10:40:52;;;;;;;;;;;;;;;18.34;48.85;100037.94;4930087;27;98599;-70
2022/10/15 10:43:30;;;;;;;;;;;;;;;18.25;49.05;100040.72;4944371;27;97838;-65
2022/10/15 10:46:15;;;;;;;;;;;;;;;18.14;49.15;100050.41;4963845;27;97855;-69
2022/10/15 10:48:43;;;;;;;;;;;;;;;18.07;49.03;100047.38;4974335;27;99982;-66
2022/10/15 10:51:23;;;;;;;;;;;;;;;18.02;49.23;100053.03;4952949;27;98102;-66
2022/10/15 10:53:51;;;;;;;;;;;;;;;17.93;49.17;100053.06;4946420;27;98052;-67
2022/10/15 10:56:20;;;;;;;;;;;;;;;17.93;49.14;100055.78;4961737;27;98026;-65
2022/10/15 10:58:47;;;;;;;;;;;;;;;17.89;49.17;100055.63;4960286;27;99428;-69
2022/10/15 11:01:13;;;;;;;;;;;;;;;17.84;49.32;100053.09;4940239;27;98526;-66
2022/10/15 11:03:42;;;;;;;;;;;;;;;17.76;49.40;100053.91;4956130;27;99061;-69
2022/10/15 11:06:11;;;;;;;;;;;;;;;17.67;49.54;100059.34;4976357;27;98120;-69
2022/10/15 11:08:54;;;;;;;;;;;;;;;17.62;49.52;100056.00;5006018;27;99792;-69
2022/10/15 11:11:45;;;;;;;;;;;;;;;17.57;49.51;100051.53;4984979;27;98328;-69
2022/10/15 11:14:24;;;;;;;;;;;;;;;17.56;49.34;100052.63;4967822;27;105617;-65
2022/10/15 11:17:16;;;;;;;;;;;;;;;17.55;49.41;100051.03;4971209;27;98270;-70
2022/10/15 11:19:59;;;;;;;;;;;;;;;17.64;49.35;100051.00;5000340;27;98505;-69
2022/10/15 11:22:43;;;;;;;;;;;;;;;17.84;48.83;100053.09;4981847;27;97956;-68
2022/10/15 11:25:18;;;;;;;;;;;;;;;18.04;48.58;100046.13;5002051;27;98320;-69
2022/10/15 11:28:05;;;;;;;;;;;;;;;18.19;48.59;100050.22;4996284;27;98067;-66
2022/10/15 11:30:47;;;;;;;;;;;;;;;18.21;48.46;100049.91;4986586;27;98276;-66
2022/10/15 11:33:28;;;;;;;;;;;;;;;18.32;48.47;100045.69;4959933;27;99048;-66
2022/10/15 11:36:18;;;;;;;;;;;;;;;18.49;48.37;100042.84;4978872;27;98098;-65
2022/10/15 11:39:05;;;;;;;;;;;;;;;18.59;48.22;100037.00;5004052;27;98392;-66
2022/10/15 11:41:41;;;;;;;;;;;;;;;18.63;48.23;100042.59;4988399;27;98215;-65
2022/10/15 11:44:27;;;;;;;;;;;;;;;18.74;48.24;100051.22;4982652;27;98743;-65
2022/10/15 11:47:14;;;;;;;;;;;;;;;18.86;47.97;100043.09;4982431;27;98050;-69
2022/10/15 11:49:46;;;;;;;;;;;;;;;18.93;48.08;100037.09;5013357;27;97965;-69
2022/10/15 11:52:50;;;;;;;;;;;;;;;18.84;48.24;100050.84;4995234;27;98419;-70
2022/10/15 11:55:43;;;;;;;;;;;;;;;18.76;48.75;100048.97;4998709;27;97969;-69
2022/10/15 11:58:22;;;;;;;;;;;;;;;18.64;49.14;100042.25;4968061;27;124100;-65
2022/10/15 12:00:54;;;;;;;;;;;;;;;18.60;48.88;100043.25;5009442;27;98342;-65
2022/10/15 12:03:27;;;;;;;;;;;;;;;18.53;49.16;100043.78;4973701;27;98542;-65
2022/10/15 12:06:31;;;;;;;;;;;;;;;18.57;49.10;100039.25;4977499;27;98500;-65
2022/10/15 12:08:58;;;;;;;;;;;;;;;18.70;48.91;100040.16;4892232;28;98498;-65
2022/10/15 12:11:47;;;;;;;;;;;;;;;18.73;48.84;100047.69;4960332;27;98067;-65
2022/10/15 12:15:01;;;;;;;;;;;;;;;18.74;48.86;100043.03;4980874;27;100320;-65
2022/10/15 12:17:59;;;;;;;;;;;;;;;18.64;49.17;100046.94;4877062;28;98362;-69
2022/10/15 12:20:25;;;;;;;;;;;;;;;18.61;49.26;100044.84;4974869;27;98299;-65
2022/10/15 12:22:51;;;;;;;;;;;;;;;18.63;49.18;100039.88;4977300;27;101468;-69
2022/10/15 12:25:35;;;;;;;;;;;;;;;18.81;48.91;100035.91;5009270;27;98403;-69
2022/10/15 12:28:07;;;;;;;;;;;;;;;18.84;48.90;100040.72;4989196;27;98239;-69
2022/10/15 12:30:35;;;;;;;;;;;;;;;18.92;49.05;100030.84;4996741;27;98769;-65
2022/10/15 12:33:02;;;;;;;;;;;;;;;18.87;48.92;100031.84;4967792;27;97871;-65
2022/10/15 12:35:36;;;;;;;;;;;;;;;18.97;48.94;100035.31;4982388;27;98008;-65
2022/10/15 12:38:20;;;;;;;;;;;;;;;19.19;48.34;100039.63;4986325;27;98088;-65
2022/10/15 12:40:46;;;;;;;;;;;;;;;19.33;48.19;100042.88;4983858;27;97958;-69
2022/10/15 12:43:14;;;;;;;;;;;;;;;19.46;48.11;100035.53;4967835;27;97968;-66
2022/10/15 12:45:48;;;;;;;;;;;;;;;19.52;48.24;100031.44;4995420;27;98287;-66
2022/10/15 12:48:14;;;;;;;;;;;;;;;19.61;48.13;100038.44;4973208;27;98108;-66
2022/10/15 12:50:41;;;;;;;;;;;;;;;19.72;47.97;100035.25;5017352;27;98019;-69
2022/10/15 12:53:27;;;;;;;;;;;;;;;19.89;47.72;100039.75;4965264;27;97952;-66
2022/10/15 12:56:21;;;;;;;;;;;;;;;20.07;47.93;100038.38;5015238;27;98728;-66
2022/10/15 12:58:54;;;;;;;;;;;;;;;19.95;47.96;100030.97;5004993;27;99087;-65
2022/10/15 13:01:20;;;;;;;;;;;;;;;19.70;48.52;100030.16;4994601;27;97979;-66